Main page
METAR-TAF:

METAR-TAF

Airports :

Ireland West Airport Knock

Knock, Ireland

latitude: 53-54-37N, longitude: 008-49-05W, elevation: 203 m

Current weather observation

The report was made 29 minutes ago, at 08:00 UTC
Wind 5 kt from the West/Southwest, varying between South/Southwest and West
Temperature 11°C
Humidity 87%
Pressure 1027 hPa
Visibility 10 km or more
Few clouds at a height of 2200 ft
Broken clouds at a height of 4100 ft

METAR: EIKN 110800Z 24005KT 210V280 9999 FEW022 BKN041 11/09 Q1027 NOSIG

Time: 09:29 (08:29 UTC)

Forecast

The report was made 3 hours and 29 minutes ago, at 05:00 UTC
Forecast valid from 11 at 06 UTC to 12 at 06 UTC
Wind 7 kt from the West
Visibility 10 km or more
Scattered clouds at a height of 4000 ft
Becoming
from 11 at 18 UTC to 11 at 20 UTC
Wind 3 kt from variable directions

TAF: EIKN 110500Z 1106/1206 26007KT 9999 SCT040 BECMG 1118/1120 VRB03KT

Weather observations and forecasts of more than 4000 airports (METAR and TAF reports).

The available stations are represented by yellow and red dots on the map.

Hover mouse over dot to see the name of the station.

Then click to see weather observations and forecasts.

To change the map : click on the green buttons with a black cross to zoom in, on the green button with a dash to zoom out, or on the green arrows for adjacent maps.


METAR-TAF: